sensor_id;sensor_type;location;lat;lon;timestamp;P1;durP1;ratioP1;P2;durP2;ratioP2
4397;SDS011;2213;49.720;7.296;2023-03-22T00:02:08;6.60;;;3.80;;
4397;SDS011;2213;49.720;7.296;2023-03-22T00:04:38;8.10;;;3.97;;
4397;SDS011;2213;49.720;7.296;2023-03-22T00:07:08;5.43;;;3.33;;
4397;SDS011;2213;49.720;7.296;2023-03-22T00:09:38;9.20;;;4.00;;
4397;SDS011;2213;49.720;7.296;2023-03-22T00:12:10;13.00;;;4.30;;
4397;SDS011;2213;49.720;7.296;2023-03-22T00:14:39;5.50;;;3.50;;
4397;SDS011;2213;49.720;7.296;2023-03-22T00:17:10;5.20;;;3.53;;
4397;SDS011;2213;49.720;7.296;2023-03-22T00:19:40;9.53;;;4.37;;
4397;SDS011;2213;49.720;7.296;2023-03-22T00:22:11;7.13;;;4.13;;
4397;SDS011;2213;49.720;7.296;2023-03-22T00:24:42;4.33;;;3.10;;
4397;SDS011;2213;49.720;7.296;2023-03-22T00:27:13;6.00;;;3.90;;
4397;SDS011;2213;49.720;7.296;2023-03-22T00:29:42;6.53;;;4.13;;
4397;SDS011;2213;49.720;7.296;2023-03-22T00:32:13;6.47;;;3.90;;
4397;SDS011;2213;49.720;7.296;2023-03-22T00:34:42;4.83;;;3.23;;
4397;SDS011;2213;49.720;7.296;2023-03-22T00:37:13;8.10;;;3.53;;
4397;SDS011;2213;49.720;7.296;2023-03-22T00:39:47;3.53;;;2.93;;
4397;SDS011;2213;49.720;7.296;2023-03-22T00:42:20;10.00;;;3.47;;
4397;SDS011;2213;49.720;7.296;2023-03-22T00:44:51;9.50;;;3.87;;
4397;SDS011;2213;49.720;7.296;2023-03-22T00:47:21;4.50;;;3.63;;
4397;SDS011;2213;49.720;7.296;2023-03-22T00:49:51;6.30;;;4.20;;
4397;SDS011;2213;49.720;7.296;2023-03-22T00:52:22;5.20;;;3.70;;
4397;SDS011;2213;49.720;7.296;2023-03-22T00:54:52;6.67;;;3.90;;
4397;SDS011;2213;49.720;7.296;2023-03-22T00:57:24;7.43;;;4.50;;
4397;SDS011;2213;49.720;7.296;2023-03-22T00:59:54;5.90;;;3.50;;
4397;SDS011;2213;49.720;7.296;2023-03-22T01:02:24;7.37;;;3.43;;
4397;SDS011;2213;49.720;7.296;2023-03-22T01:04:56;4.03;;;3.63;;
4397;SDS011;2213;49.720;7.296;2023-03-22T01:07:26;6.17;;;2.90;;
4397;SDS011;2213;49.720;7.296;2023-03-22T01:09:56;11.43;;;4.03;;
4397;SDS011;2213;49.720;7.296;2023-03-22T01:12:28;4.37;;;3.60;;
4397;SDS011;2213;49.720;7.296;2023-03-22T01:14:57;5.97;;;3.20;;
4397;SDS011;2213;49.720;7.296;2023-03-22T01:17:28;6.50;;;3.17;;
4397;SDS011;2213;49.720;7.296;2023-03-22T01:19:58;9.40;;;3.57;;
4397;SDS011;2213;49.720;7.296;2023-03-22T01:22:32;5.07;;;3.13;;
4397;SDS011;2213;49.720;7.296;2023-03-22T01:25:03;6.23;;;4.27;;
4397;SDS011;2213;49.720;7.296;2023-03-22T01:27:37;4.10;;;3.17;;
4397;SDS011;2213;49.720;7.296;2023-03-22T01:30:08;5.70;;;3.90;;
4397;SDS011;2213;49.720;7.296;2023-03-22T01:32:40;4.67;;;3.20;;
4397;SDS011;2213;49.720;7.296;2023-03-22T01:35:10;5.43;;;4.00;;
4397;SDS011;2213;49.720;7.296;2023-03-22T01:37:40;5.43;;;3.90;;
4397;SDS011;2213;49.720;7.296;2023-03-22T01:40:09;7.23;;;3.67;;
4397;SDS011;2213;49.720;7.296;2023-03-22T01:42:43;6.73;;;3.80;;
4397;SDS011;2213;49.720;7.296;2023-03-22T01:45:28;6.80;;;4.03;;
4397;SDS011;2213;49.720;7.296;2023-03-22T01:48:14;5.27;;;3.57;;
4397;SDS011;2213;49.720;7.296;2023-03-22T01:50:57;6.23;;;3.70;;
4397;SDS011;2213;49.720;7.296;2023-03-22T01:53:35;7.43;;;3.73;;
4397;SDS011;2213;49.720;7.296;2023-03-22T01:56:10;6.00;;;3.40;;
4397;SDS011;2213;49.720;7.296;2023-03-22T01:58:42;5.20;;;3.47;;
4397;SDS011;2213;49.720;7.296;2023-03-22T02:01:12;5.60;;;3.60;;
4397;SDS011;2213;49.720;7.296;2023-03-22T02:03:42;5.30;;;3.80;;
4397;SDS011;2213;49.720;7.296;2023-03-22T02:06:17;5.80;;;3.40;;
4397;SDS011;2213;49.720;7.296;2023-03-22T02:08:49;4.83;;;3.40;;
4397;SDS011;2213;49.720;7.296;2023-03-22T02:11:24;4.87;;;3.50;;
4397;SDS011;2213;49.720;7.296;2023-03-22T02:16:57;5.30;;;4.00;;
4397;SDS011;2213;49.720;7.296;2023-03-22T02:23:38;5.10;;;3.90;;
4397;SDS011;2213;49.720;7.296;2023-03-22T02:26:49;5.90;;;3.40;;
4397;SDS011;2213;49.720;7.296;2023-03-22T02:29:47;3.57;;;3.27;;
4397;SDS011;2213;49.720;7.296;2023-03-22T02:35:45;4.13;;;3.70;;
4397;SDS011;2213;49.720;7.296;2023-03-22T02:41:43;7.57;;;3.53;;
4397;SDS011;2213;49.720;7.296;2023-03-22T02:44:26;11.03;;;4.13;;
4397;SDS011;2213;49.720;7.296;2023-03-22T02:47:10;11.40;;;3.90;;
4397;SDS011;2213;49.720;7.296;2023-03-22T02:49:52;8.00;;;4.00;;
4397;SDS011;2213;49.720;7.296;2023-03-22T02:52:30;6.03;;;3.70;;
4397;SDS011;2213;49.720;7.296;2023-03-22T02:55:10;5.40;;;3.80;;
4397;SDS011;2213;49.720;7.296;2023-03-22T02:57:53;6.80;;;3.60;;
4397;SDS011;2213;49.720;7.296;2023-03-22T03:00:27;12.90;;;5.70;;
4397;SDS011;2213;49.720;7.296;2023-03-22T03:03:02;9.37;;;4.40;;
4397;SDS011;2213;49.720;7.296;2023-03-22T03:05:38;7.23;;;4.20;;
4397;SDS011;2213;49.720;7.296;2023-03-22T03:08:14;9.40;;;4.50;;
4397;SDS011;2213;49.720;7.296;2023-03-22T03:10:48;6.27;;;4.70;;
4397;SDS011;2213;49.720;7.296;2023-03-22T03:13:19;6.40;;;4.03;;
4397;SDS011;2213;49.720;7.296;2023-03-22T03:15:51;6.60;;;3.80;;
4397;SDS011;2213;49.720;7.296;2023-03-22T03:18:27;6.80;;;4.53;;
4397;SDS011;2213;49.720;7.296;2023-03-22T03:21:18;7.43;;;4.23;;
4397;SDS011;2213;49.720;7.296;2023-03-22T03:24:02;7.80;;;4.13;;
4397;SDS011;2213;49.720;7.296;2023-03-22T03:26:51;5.07;;;3.33;;
4397;SDS011;2213;49.720;7.296;2023-03-22T03:29:32;6.30;;;3.47;;
4397;SDS011;2213;49.720;7.296;2023-03-22T03:32:11;5.23;;;3.50;;
4397;SDS011;2213;49.720;7.296;2023-03-22T03:34:53;7.30;;;4.07;;
4397;SDS011;2213;49.720;7.296;2023-03-22T03:37:33;6.03;;;3.37;;
4397;SDS011;2213;49.720;7.296;2023-03-22T03:40:08;7.50;;;4.40;;
4397;SDS011;2213;49.720;7.296;2023-03-22T03:42:46;6.20;;;4.40;;
4397;SDS011;2213;49.720;7.296;2023-03-22T03:45:20;5.53;;;4.40;;
4397;SDS011;2213;49.720;7.296;2023-03-22T03:47:52;13.00;;;3.93;;
4397;SDS011;2213;49.720;7.296;2023-03-22T03:50:26;6.30;;;4.00;;
4397;SDS011;2213;49.720;7.296;2023-03-22T03:52:56;15.13;;;5.37;;
4397;SDS011;2213;49.720;7.296;2023-03-22T03:55:26;14.40;;;5.80;;
4397;SDS011;2213;49.720;7.296;2023-03-22T03:57:59;11.87;;;5.43;;
4397;SDS011;2213;49.720;7.296;2023-03-22T04:00:30;14.57;;;6.47;;
4397;SDS011;2213;49.720;7.296;2023-03-22T04:03:00;9.40;;;5.20;;
4397;SDS011;2213;49.720;7.296;2023-03-22T04:05:31;13.53;;;5.90;;
4397;SDS011;2213;49.720;7.296;2023-03-22T04:08:00;8.47;;;4.90;;
4397;SDS011;2213;49.720;7.296;2023-03-22T04:10:32;18.03;;;6.03;;
4397;SDS011;2213;49.720;7.296;2023-03-22T04:13:03;8.67;;;5.20;;
4397;SDS011;2213;49.720;7.296;2023-03-22T04:15:32;6.30;;;4.13;;
4397;SDS011;2213;49.720;7.296;2023-03-22T04:18:03;15.77;;;5.10;;
4397;SDS011;2213;49.720;7.296;2023-03-22T04:20:35;12.30;;;5.60;;
4397;SDS011;2213;49.720;7.296;2023-03-22T04:23:07;9.30;;;5.93;;
4397;SDS011;2213;49.720;7.296;2023-03-22T04:25:37;11.97;;;5.63;;
4397;SDS011;2213;49.720;7.296;2023-03-22T04:28:09;14.23;;;6.40;;
4397;SDS011;2213;49.720;7.296;2023-03-22T04:30:40;20.13;;;6.07;;
4397;SDS011;2213;49.720;7.296;2023-03-22T04:33:11;10.70;;;6.23;;
4397;SDS011;2213;49.720;7.296;2023-03-22T04:35:41;9.93;;;5.80;;
4397;SDS011;2213;49.720;7.296;2023-03-22T04:38:12;10.47;;;5.40;;
4397;SDS011;2213;49.720;7.296;2023-03-22T04:40:44;12.27;;;6.53;;
4397;SDS011;2213;49.720;7.296;2023-03-22T04:43:16;16.00;;;6.00;;
4397;SDS011;2213;49.720;7.296;2023-03-22T04:45:46;15.80;;;5.63;;
4397;SDS011;2213;49.720;7.296;2023-03-22T04:48:16;12.20;;;5.97;;
4397;SDS011;2213;49.720;7.296;2023-03-22T04:50:48;16.03;;;5.57;;
4397;SDS011;2213;49.720;7.296;2023-03-22T04:53:19;8.47;;;4.00;;
4397;SDS011;2213;49.720;7.296;2023-03-22T04:55:53;16.93;;;5.10;;
4397;SDS011;2213;49.720;7.296;2023-03-22T04:58:25;14.30;;;5.80;;
4397;SDS011;2213;49.720;7.296;2023-03-22T05:00:56;5.73;;;4.10;;
4397;SDS011;2213;49.720;7.296;2023-03-22T05:03:26;15.17;;;5.30;;
4397;SDS011;2213;49.720;7.296;2023-03-22T05:05:55;9.80;;;4.83;;
4397;SDS011;2213;49.720;7.296;2023-03-22T05:08:28;14.40;;;5.43;;
4397;SDS011;2213;49.720;7.296;2023-03-22T05:11:03;11.77;;;5.07;;
4397;SDS011;2213;49.720;7.296;2023-03-22T05:13:37;12.30;;;4.87;;
4397;SDS011;2213;49.720;7.296;2023-03-22T05:16:08;11.07;;;5.40;;
4397;SDS011;2213;49.720;7.296;2023-03-22T05:18:39;12.67;;;4.97;;
4397;SDS011;2213;49.720;7.296;2023-03-22T05:21:11;10.27;;;4.90;;
4397;SDS011;2213;49.720;7.296;2023-03-22T05:23:43;8.43;;;5.00;;
4397;SDS011;2213;49.720;7.296;2023-03-22T05:26:17;11.87;;;6.17;;
4397;SDS011;2213;49.720;7.296;2023-03-22T05:28:51;28.10;;;8.47;;
4397;SDS011;2213;49.720;7.296;2023-03-22T05:31:21;9.00;;;4.67;;
4397;SDS011;2213;49.720;7.296;2023-03-22T05:33:50;13.20;;;5.60;;
4397;SDS011;2213;49.720;7.296;2023-03-22T05:36:21;8.03;;;5.00;;
4397;SDS011;2213;49.720;7.296;2023-03-22T05:38:50;12.60;;;6.07;;
4397;SDS011;2213;49.720;7.296;2023-03-22T05:41:21;10.00;;;6.00;;
4397;SDS011;2213;49.720;7.296;2023-03-22T05:43:52;9.90;;;5.20;;
4397;SDS011;2213;49.720;7.296;2023-03-22T05:46:23;9.20;;;5.37;;
4397;SDS011;2213;49.720;7.296;2023-03-22T05:48:53;12.93;;;5.53;;
4397;SDS011;2213;49.720;7.296;2023-03-22T05:51:24;13.10;;;6.10;;
4397;SDS011;2213;49.720;7.296;2023-03-22T05:53:53;9.43;;;5.70;;
4397;SDS011;2213;49.720;7.296;2023-03-22T05:56:24;8.10;;;5.23;;
4397;SDS011;2213;49.720;7.296;2023-03-22T05:58:56;15.60;;;6.43;;
4397;SDS011;2213;49.720;7.296;2023-03-22T06:01:25;8.67;;;5.23;;
4397;SDS011;2213;49.720;7.296;2023-03-22T06:03:55;11.43;;;5.47;;
4397;SDS011;2213;49.720;7.296;2023-03-22T06:06:25;6.57;;;4.50;;
4397;SDS011;2213;49.720;7.296;2023-03-22T06:08:55;6.83;;;5.13;;
4397;SDS011;2213;49.720;7.296;2023-03-22T06:11:42;12.27;;;6.00;;
4397;SDS011;2213;49.720;7.296;2023-03-22T06:14:14;15.83;;;6.10;;
4397;SDS011;2213;49.720;7.296;2023-03-22T06:16:45;9.00;;;4.80;;
4397;SDS011;2213;49.720;7.296;2023-03-22T06:19:15;7.90;;;6.00;;
4397;SDS011;2213;49.720;7.296;2023-03-22T06:21:47;10.03;;;5.20;;
4397;SDS011;2213;49.720;7.296;2023-03-22T06:24:18;11.83;;;5.37;;
4397;SDS011;2213;49.720;7.296;2023-03-22T06:26:49;10.73;;;6.17;;
4397;SDS011;2213;49.720;7.296;2023-03-22T06:29:21;11.30;;;6.57;;
4397;SDS011;2213;49.720;7.296;2023-03-22T06:31:51;7.60;;;5.27;;
4397;SDS011;2213;49.720;7.296;2023-03-22T06:34:21;9.43;;;5.37;;
4397;SDS011;2213;49.720;7.296;2023-03-22T06:36:52;12.60;;;6.43;;
4397;SDS011;2213;49.720;7.296;2023-03-22T06:39:23;9.27;;;6.20;;
4397;SDS011;2213;49.720;7.296;2023-03-22T06:41:53;12.73;;;8.70;;
4397;SDS011;2213;49.720;7.296;2023-03-22T06:44:24;14.07;;;8.13;;
4397;SDS011;2213;49.720;7.296;2023-03-22T06:46:54;14.57;;;8.47;;
4397;SDS011;2213;49.720;7.296;2023-03-22T06:49:24;11.20;;;8.67;;
4397;SDS011;2213;49.720;7.296;2023-03-22T06:51:53;23.03;;;7.63;;
4397;SDS011;2213;49.720;7.296;2023-03-22T06:54:24;13.40;;;8.83;;
4397;SDS011;2213;49.720;7.296;2023-03-22T06:56:54;23.13;;;8.93;;
4397;SDS011;2213;49.720;7.296;2023-03-22T06:59:25;15.83;;;8.17;;
4397;SDS011;2213;49.720;7.296;2023-03-22T07:01:56;10.37;;;7.83;;
4397;SDS011;2213;49.720;7.296;2023-03-22T07:04:27;15.73;;;8.10;;
4397;SDS011;2213;49.720;7.296;2023-03-22T07:06:57;13.67;;;7.50;;
4397;SDS011;2213;49.720;7.296;2023-03-22T07:09:26;17.20;;;8.00;;
4397;SDS011;2213;49.720;7.296;2023-03-22T07:11:56;8.70;;;7.10;;
4397;SDS011;2213;49.720;7.296;2023-03-22T07:14:28;8.40;;;6.83;;
4397;SDS011;2213;49.720;7.296;2023-03-22T07:16:58;13.77;;;6.90;;
4397;SDS011;2213;49.720;7.296;2023-03-22T07:19:27;9.00;;;6.20;;
4397;SDS011;2213;49.720;7.296;2023-03-22T07:21:57;8.87;;;5.50;;
4397;SDS011;2213;49.720;7.296;2023-03-22T07:24:27;10.80;;;5.27;;
4397;SDS011;2213;49.720;7.296;2023-03-22T07:26:58;10.90;;;4.83;;
4397;SDS011;2213;49.720;7.296;2023-03-22T07:29:28;10.40;;;5.40;;
4397;SDS011;2213;49.720;7.296;2023-03-22T07:31:58;8.30;;;4.57;;
4397;SDS011;2213;49.720;7.296;2023-03-22T07:34:27;11.00;;;4.47;;
4397;SDS011;2213;49.720;7.296;2023-03-22T07:36:57;6.10;;;3.87;;
4397;SDS011;2213;49.720;7.296;2023-03-22T07:39:28;6.50;;;3.60;;
4397;SDS011;2213;49.720;7.296;2023-03-22T07:41:58;5.70;;;3.20;;
4397;SDS011;2213;49.720;7.296;2023-03-22T07:44:29;5.57;;;2.90;;
4397;SDS011;2213;49.720;7.296;2023-03-22T07:47:00;4.83;;;2.20;;
4397;SDS011;2213;49.720;7.296;2023-03-22T07:49:30;5.13;;;2.67;;
4397;SDS011;2213;49.720;7.296;2023-03-22T07:52:00;3.87;;;2.23;;
4397;SDS011;2213;49.720;7.296;2023-03-22T07:54:31;4.00;;;1.97;;
4397;SDS011;2213;49.720;7.296;2023-03-22T07:57:00;3.20;;;2.00;;
4397;SDS011;2213;49.720;7.296;2023-03-22T07:59:33;2.27;;;2.07;;
4397;SDS011;2213;49.720;7.296;2023-03-22T08:02:05;2.63;;;1.47;;
4397;SDS011;2213;49.720;7.296;2023-03-22T08:04:37;3.00;;;1.60;;
4397;SDS011;2213;49.720;7.296;2023-03-22T08:07:07;5.17;;;2.27;;
4397;SDS011;2213;49.720;7.296;2023-03-22T08:09:37;1.83;;;1.67;;
4397;SDS011;2213;49.720;7.296;2023-03-22T08:12:07;4.53;;;1.80;;
4397;SDS011;2213;49.720;7.296;2023-03-22T08:14:38;4.33;;;1.73;;
4397;SDS011;2213;49.720;7.296;2023-03-22T08:17:07;4.10;;;1.80;;
4397;SDS011;2213;49.720;7.296;2023-03-22T08:19:37;3.10;;;1.70;;
4397;SDS011;2213;49.720;7.296;2023-03-22T08:22:07;6.07;;;2.10;;
4397;SDS011;2213;49.720;7.296;2023-03-22T08:24:38;2.30;;;1.53;;
4397;SDS011;2213;49.720;7.296;2023-03-22T08:27:08;2.70;;;1.97;;
4397;SDS011;2213;49.720;7.296;2023-03-22T08:29:40;2.40;;;1.53;;
4397;SDS011;2213;49.720;7.296;2023-03-22T08:32:09;3.37;;;1.53;;
4397;SDS011;2213;49.720;7.296;2023-03-22T08:34:39;3.23;;;1.60;;
4397;SDS011;2213;49.720;7.296;2023-03-22T08:37:10;3.80;;;1.40;;
4397;SDS011;2213;49.720;7.296;2023-03-22T08:39:42;3.70;;;1.50;;
4397;SDS011;2213;49.720;7.296;2023-03-22T08:42:12;6.00;;;1.43;;
4397;SDS011;2213;49.720;7.296;2023-03-22T08:44:43;2.33;;;1.33;;
4397;SDS011;2213;49.720;7.296;2023-03-22T08:47:13;2.00;;;1.57;;
4397;SDS011;2213;49.720;7.296;2023-03-22T08:49:42;3.23;;;1.53;;
4397;SDS011;2213;49.720;7.296;2023-03-22T08:52:11;4.33;;;1.90;;
4397;SDS011;2213;49.720;7.296;2023-03-22T08:54:41;5.07;;;1.80;;
4397;SDS011;2213;49.720;7.296;2023-03-22T08:57:10;4.13;;;1.47;;
4397;SDS011;2213;49.720;7.296;2023-03-22T08:59:43;1.37;;;1.27;;
4397;SDS011;2213;49.720;7.296;2023-03-22T09:02:14;3.87;;;1.93;;
4397;SDS011;2213;49.720;7.296;2023-03-22T09:04:43;3.20;;;1.67;;
4397;SDS011;2213;49.720;7.296;2023-03-22T09:07:14;3.77;;;1.80;;
4397;SDS011;2213;49.720;7.296;2023-03-22T09:09:44;2.50;;;1.30;;
4397;SDS011;2213;49.720;7.296;2023-03-22T09:12:14;6.10;;;2.73;;
4397;SDS011;2213;49.720;7.296;2023-03-22T09:14:45;2.60;;;1.57;;
4397;SDS011;2213;49.720;7.296;2023-03-22T09:17:15;1.73;;;1.50;;
4397;SDS011;2213;49.720;7.296;2023-03-22T09:19:48;5.20;;;1.50;;
4397;SDS011;2213;49.720;7.296;2023-03-22T09:22:34;3.17;;;1.50;;
4397;SDS011;2213;49.720;7.296;2023-03-22T09:25:06;1.77;;;1.57;;
4397;SDS011;2213;49.720;7.296;2023-03-22T09:27:38;1.63;;;1.30;;
4397;SDS011;2213;49.720;7.296;2023-03-22T09:30:10;4.37;;;1.50;;
4397;SDS011;2213;49.720;7.296;2023-03-22T09:32:40;3.07;;;1.97;;
4397;SDS011;2213;49.720;7.296;2023-03-22T09:35:09;3.90;;;1.50;;
4397;SDS011;2213;49.720;7.296;2023-03-22T09:37:39;1.40;;;1.30;;
4397;SDS011;2213;49.720;7.296;2023-03-22T09:40:09;3.60;;;1.60;;
4397;SDS011;2213;49.720;7.296;2023-03-22T09:42:41;5.57;;;1.27;;
4397;SDS011;2213;49.720;7.296;2023-03-22T09:45:17;7.97;;;1.90;;
4397;SDS011;2213;49.720;7.296;2023-03-22T09:47:55;1.20;;;1.10;;
4397;SDS011;2213;49.720;7.296;2023-03-22T09:50:28;7.93;;;1.90;;
4397;SDS011;2213;49.720;7.296;2023-03-22T09:53:00;2.50;;;1.80;;
4397;SDS011;2213;49.720;7.296;2023-03-22T09:55:32;3.13;;;1.57;;
4397;SDS011;2213;49.720;7.296;2023-03-22T09:58:10;1.67;;;1.50;;
4397;SDS011;2213;49.720;7.296;2023-03-22T10:00:55;2.27;;;1.53;;
4397;SDS011;2213;49.720;7.296;2023-03-22T10:03:35;1.77;;;1.03;;
4397;SDS011;2213;49.720;7.296;2023-03-22T10:06:38;3.23;;;1.47;;
4397;SDS011;2213;49.720;7.296;2023-03-22T10:09:18;2.97;;;1.60;;
4397;SDS011;2213;49.720;7.296;2023-03-22T10:12:03;4.03;;;1.37;;
4397;SDS011;2213;49.720;7.296;2023-03-22T10:14:44;1.30;;;1.20;;
4397;SDS011;2213;49.720;7.296;2023-03-22T10:17:22;6.63;;;1.30;;
4397;SDS011;2213;49.720;7.296;2023-03-22T10:19:57;3.03;;;1.50;;
4397;SDS011;2213;49.720;7.296;2023-03-22T10:22:34;3.07;;;1.40;;
4397;SDS011;2213;49.720;7.296;2023-03-22T10:25:14;2.93;;;1.50;;
4397;SDS011;2213;49.720;7.296;2023-03-22T10:27:51;1.33;;;1.13;;
4397;SDS011;2213;49.720;7.296;2023-03-22T10:30:24;2.93;;;1.50;;
4397;SDS011;2213;49.720;7.296;2023-03-22T10:32:58;1.30;;;1.20;;
4397;SDS011;2213;49.720;7.296;2023-03-22T10:35:31;3.33;;;1.23;;
4397;SDS011;2213;49.720;7.296;2023-03-22T10:38:01;1.73;;;1.57;;
4397;SDS011;2213;49.720;7.296;2023-03-22T10:40:37;2.00;;;1.60;;
4397;SDS011;2213;49.720;7.296;2023-03-22T10:43:09;2.50;;;1.50;;
4397;SDS011;2213;49.720;7.296;2023-03-22T10:45:51;3.10;;;1.63;;
4397;SDS011;2213;49.720;7.296;2023-03-22T10:48:27;1.30;;;1.20;;
4397;SDS011;2213;49.720;7.296;2023-03-22T10:51:00;1.20;;;1.10;;
4397;SDS011;2213;49.720;7.296;2023-03-22T10:53:35;3.73;;;1.27;;
4397;SDS011;2213;49.720;7.296;2023-03-22T10:56:09;3.70;;;1.63;;
4397;SDS011;2213;49.720;7.296;2023-03-22T10:58:41;4.10;;;1.53;;
4397;SDS011;2213;49.720;7.296;2023-03-22T11:01:12;3.30;;;1.57;;
4397;SDS011;2213;49.720;7.296;2023-03-22T11:03:55;3.43;;;1.27;;
4397;SDS011;2213;49.720;7.296;2023-03-22T11:06:28;1.77;;;1.50;;
4397;SDS011;2213;49.720;7.296;2023-03-22T11:09:07;1.40;;;1.30;;
4397;SDS011;2213;49.720;7.296;2023-03-22T11:11:44;6.33;;;1.30;;
4397;SDS011;2213;49.720;7.296;2023-03-22T11:14:29;2.10;;;1.00;;
4397;SDS011;2213;49.720;7.296;2023-03-22T11:17:06;2.57;;;1.23;;
4397;SDS011;2213;49.720;7.296;2023-03-22T11:19:41;2.00;;;1.20;;
4397;SDS011;2213;49.720;7.296;2023-03-22T11:22:23;2.40;;;1.67;;
4397;SDS011;2213;49.720;7.296;2023-03-22T11:24:59;1.30;;;1.20;;
4397;SDS011;2213;49.720;7.296;2023-03-22T11:27:31;1.30;;;1.20;;
4397;SDS011;2213;49.720;7.296;2023-03-22T11:30:07;1.20;;;1.10;;
4397;SDS011;2213;49.720;7.296;2023-03-22T11:32:48;1.87;;;1.00;;
4397;SDS011;2213;49.720;7.296;2023-03-22T11:35:31;1.23;;;1.00;;
4397;SDS011;2213;49.720;7.296;2023-03-22T11:38:04;1.50;;;1.40;;
4397;SDS011;2213;49.720;7.296;2023-03-22T11:40:34;1.67;;;1.30;;
4397;SDS011;2213;49.720;7.296;2023-03-22T11:43:10;2.07;;;1.30;;
4397;SDS011;2213;49.720;7.296;2023-03-22T11:45:47;2.40;;;1.30;;
4397;SDS011;2213;49.720;7.296;2023-03-22T11:48:22;2.77;;;1.50;;
4397;SDS011;2213;49.720;7.296;2023-03-22T11:51:02;2.47;;;1.40;;
4397;SDS011;2213;49.720;7.296;2023-03-22T11:53:38;4.60;;;1.90;;
4397;SDS011;2213;49.720;7.296;2023-03-22T11:56:11;1.40;;;1.20;;
4397;SDS011;2213;49.720;7.296;2023-03-22T11:58:49;1.60;;;1.10;;
4397;SDS011;2213;49.720;7.296;2023-03-22T12:01:30;1.30;;;1.10;;
4397;SDS011;2213;49.720;7.296;2023-03-22T12:04:07;2.40;;;1.10;;
4397;SDS011;2213;49.720;7.296;2023-03-22T12:06:44;1.30;;;1.10;;
4397;SDS011;2213;49.720;7.296;2023-03-22T12:09:21;1.50;;;1.20;;
4397;SDS011;2213;49.720;7.296;2023-03-22T12:11:58;4.67;;;1.40;;
4397;SDS011;2213;49.720;7.296;2023-03-22T12:14:32;2.40;;;1.40;;
4397;SDS011;2213;49.720;7.296;2023-03-22T12:17:12;2.80;;;1.40;;
4397;SDS011;2213;49.720;7.296;2023-03-22T12:19:56;4.63;;;1.07;;
4397;SDS011;2213;49.720;7.296;2023-03-22T12:22:36;1.10;;;1.00;;
4397;SDS011;2213;49.720;7.296;2023-03-22T12:25:12;3.63;;;1.70;;
4397;SDS011;2213;49.720;7.296;2023-03-22T12:27:45;1.97;;;1.10;;
4397;SDS011;2213;49.720;7.296;2023-03-22T12:30:20;2.03;;;1.20;;
4397;SDS011;2213;49.720;7.296;2023-03-22T12:32:54;6.23;;;1.70;;
4397;SDS011;2213;49.720;7.296;2023-03-22T12:35:30;3.07;;;1.20;;
4397;SDS011;2213;49.720;7.296;2023-03-22T12:38:08;1.47;;;1.20;;
4397;SDS011;2213;49.720;7.296;2023-03-22T12:40:56;3.40;;;1.40;;
4397;SDS011;2213;49.720;7.296;2023-03-22T12:43:41;2.03;;;1.17;;
4397;SDS011;2213;49.720;7.296;2023-03-22T12:46:21;1.63;;;1.30;;
4397;SDS011;2213;49.720;7.296;2023-03-22T12:48:54;2.27;;;1.37;;
4397;SDS011;2213;49.720;7.296;2023-03-22T12:51:29;1.70;;;1.20;;
4397;SDS011;2213;49.720;7.296;2023-03-22T12:54:01;2.30;;;1.40;;
4397;SDS011;2213;49.720;7.296;2023-03-22T12:56:35;1.47;;;1.30;;
4397;SDS011;2213;49.720;7.296;2023-03-22T12:59:11;1.50;;;1.40;;
4397;SDS011;2213;49.720;7.296;2023-03-22T13:01:49;4.50;;;1.20;;
4397;SDS011;2213;49.720;7.296;2023-03-22T13:04:27;3.63;;;1.27;;
4397;SDS011;2213;49.720;7.296;2023-03-22T13:07:14;6.83;;;1.33;;
4397;SDS011;2213;49.720;7.296;2023-03-22T13:10:36;3.33;;;1.03;;
4397;SDS011;2213;49.720;7.296;2023-03-22T13:16:20;1.57;;;1.20;;
4397;SDS011;2213;49.720;7.296;2023-03-22T13:22:20;2.03;;;1.17;;
4397;SDS011;2213;49.720;7.296;2023-03-22T13:27:58;1.87;;;1.20;;
4397;SDS011;2213;49.720;7.296;2023-03-22T13:30:31;1.50;;;1.10;;
4397;SDS011;2213;49.720;7.296;2023-03-22T13:33:13;1.67;;;1.30;;
4397;SDS011;2213;49.720;7.296;2023-03-22T13:35:54;1.67;;;1.30;;
4397;SDS011;2213;49.720;7.296;2023-03-22T13:38:26;1.43;;;1.07;;
4397;SDS011;2213;49.720;7.296;2023-03-22T13:41:01;2.33;;;1.20;;
4397;SDS011;2213;49.720;7.296;2023-03-22T13:43:34;2.23;;;1.30;;
4397;SDS011;2213;49.720;7.296;2023-03-22T13:46:27;1.20;;;1.00;;
4397;SDS011;2213;49.720;7.296;2023-03-22T13:52:22;2.33;;;1.53;;
4397;SDS011;2213;49.720;7.296;2023-03-22T13:55:12;3.17;;;1.70;;
4397;SDS011;2213;49.720;7.296;2023-03-22T13:58:10;1.23;;;1.13;;
4397;SDS011;2213;49.720;7.296;2023-03-22T14:01:04;1.43;;;1.20;;
4397;SDS011;2213;49.720;7.296;2023-03-22T14:03:43;3.53;;;1.00;;
4397;SDS011;2213;49.720;7.296;2023-03-22T14:06:19;2.47;;;1.10;;
4397;SDS011;2213;49.720;7.296;2023-03-22T14:08:56;7.13;;;1.40;;
4397;SDS011;2213;49.720;7.296;2023-03-22T14:11:35;2.87;;;1.23;;
4397;SDS011;2213;49.720;7.296;2023-03-22T14:14:14;5.03;;;1.50;;
4397;SDS011;2213;49.720;7.296;2023-03-22T14:16:49;1.80;;;1.20;;
4397;SDS011;2213;49.720;7.296;2023-03-22T14:19:28;2.80;;;1.27;;
4397;SDS011;2213;49.720;7.296;2023-03-22T14:22:02;2.17;;;1.30;;
4397;SDS011;2213;49.720;7.296;2023-03-22T14:24:38;3.07;;;1.20;;
4397;SDS011;2213;49.720;7.296;2023-03-22T14:27:08;2.20;;;1.20;;
4397;SDS011;2213;49.720;7.296;2023-03-22T14:29:44;11.27;;;1.77;;
4397;SDS011;2213;49.720;7.296;2023-03-22T14:32:15;1.67;;;1.27;;
4397;SDS011;2213;49.720;7.296;2023-03-22T14:34:46;1.63;;;1.10;;
4397;SDS011;2213;49.720;7.296;2023-03-22T14:37:17;3.70;;;1.13;;
4397;SDS011;2213;49.720;7.296;2023-03-22T14:39:46;1.37;;;1.10;;
4397;SDS011;2213;49.720;7.296;2023-03-22T14:42:17;2.40;;;1.30;;
4397;SDS011;2213;49.720;7.296;2023-03-22T14:44:56;3.50;;;1.40;;
4397;SDS011;2213;49.720;7.296;2023-03-22T14:47:32;1.63;;;1.07;;
4397;SDS011;2213;49.720;7.296;2023-03-22T14:50:11;1.90;;;1.30;;
4397;SDS011;2213;49.720;7.296;2023-03-22T14:52:44;2.60;;;1.40;;
4397;SDS011;2213;49.720;7.296;2023-03-22T14:55:16;1.90;;;1.27;;
4397;SDS011;2213;49.720;7.296;2023-03-22T14:57:48;1.20;;;1.10;;
4397;SDS011;2213;49.720;7.296;2023-03-22T15:00:23;3.00;;;1.10;;
4397;SDS011;2213;49.720;7.296;2023-03-22T15:02:53;2.73;;;0.97;;
4397;SDS011;2213;49.720;7.296;2023-03-22T15:05:25;2.10;;;1.40;;
4397;SDS011;2213;49.720;7.296;2023-03-22T15:08:05;2.00;;;1.00;;
4397;SDS011;2213;49.720;7.296;2023-03-22T15:10:36;1.53;;;1.10;;
4397;SDS011;2213;49.720;7.296;2023-03-22T15:13:05;10.60;;;1.60;;
4397;SDS011;2213;49.720;7.296;2023-03-22T15:15:38;2.80;;;1.20;;
4397;SDS011;2213;49.720;7.296;2023-03-22T15:18:10;2.63;;;1.33;;
4397;SDS011;2213;49.720;7.296;2023-03-22T15:20:41;2.60;;;1.20;;
4397;SDS011;2213;49.720;7.296;2023-03-22T15:23:12;2.77;;;1.80;;
4397;SDS011;2213;49.720;7.296;2023-03-22T15:25:44;2.57;;;1.40;;
4397;SDS011;2213;49.720;7.296;2023-03-22T15:28:14;2.00;;;1.20;;
4397;SDS011;2213;49.720;7.296;2023-03-22T15:30:47;2.10;;;1.33;;
4397;SDS011;2213;49.720;7.296;2023-03-22T15:33:19;1.93;;;1.23;;
4397;SDS011;2213;49.720;7.296;2023-03-22T15:35:52;1.93;;;1.37;;
4397;SDS011;2213;49.720;7.296;2023-03-22T15:38:22;3.30;;;1.40;;
4397;SDS011;2213;49.720;7.296;2023-03-22T15:41:01;2.90;;;1.40;;
4397;SDS011;2213;49.720;7.296;2023-03-22T15:43:44;6.83;;;1.20;;
4397;SDS011;2213;49.720;7.296;2023-03-22T15:46:16;1.13;;;1.03;;
4397;SDS011;2213;49.720;7.296;2023-03-22T15:48:47;2.07;;;1.10;;
4397;SDS011;2213;49.720;7.296;2023-03-22T15:51:25;1.90;;;1.13;;
4397;SDS011;2213;49.720;7.296;2023-03-22T15:54:09;1.63;;;1.20;;
4397;SDS011;2213;49.720;7.296;2023-03-22T15:56:42;2.10;;;1.23;;
4397;SDS011;2213;49.720;7.296;2023-03-22T15:59:18;2.60;;;1.30;;
4397;SDS011;2213;49.720;7.296;2023-03-22T16:01:56;2.00;;;1.40;;
4397;SDS011;2213;49.720;7.296;2023-03-22T16:04:30;5.50;;;1.50;;
4397;SDS011;2213;49.720;7.296;2023-03-22T16:07:00;3.00;;;1.53;;
4397;SDS011;2213;49.720;7.296;2023-03-22T16:09:28;1.60;;;1.20;;
4397;SDS011;2213;49.720;7.296;2023-03-22T16:11:57;1.77;;;1.40;;
4397;SDS011;2213;49.720;7.296;2023-03-22T16:14:25;2.40;;;1.10;;
4397;SDS011;2213;49.720;7.296;2023-03-22T16:16:55;1.90;;;1.50;;
4397;SDS011;2213;49.720;7.296;2023-03-22T16:19:23;3.30;;;1.30;;
4397;SDS011;2213;49.720;7.296;2023-03-22T16:21:52;1.43;;;1.00;;